Forside
METAR-TAF:

METAR-TAF

Lufthavne :

Toledo Suburban Airport

Lambertville, Michigan, USA

Breddekreds: 41-44-09N, længdekreds: 083-39-19W, højde: 204 m

Aktuelle vejr

Denne rapport blev lavet for 33 minutter siden, kl. 17:16 UTC
Vind 8 kt fra øst med vindstød på up til 14 kt
Temperatur 1°C
Fugtighed 80%
Tryk 1024 hPa
Sigt: 16.1 km
Spredte skyer i en højde af 10000 ft
Spredte skyer i en højde af 12000 ft

METAR: KDUH 171716Z AUTO 09008G14KT 10SM SCT100 SCT120 01/M02 A3023 RMK AO2 RMK AO2

Tid: 12:49 (17:49 UTC)


TAF: fraværende

Vejrobservationer og prognoser fra mere end 4000 lufthavne (METAR og TAF).

De gule og røde prikker repræsenterer de meteorologiske stationer.

Flyt musen over at se navnet på stationen.

Så klik over at se vejr observationer og prognoser.

At skifte det kort: Klik på de grønne knapper med et sort kors for at zoome ind; på den grønne knap med en bindestreg for at zoome ud; eller på de grønne pile for tilstødende kort.


METAR-TAF: